sensor_id;sensor_type;location;lat;lon;timestamp;pressure;altitude;pressure_sealevel;temperature;humidity
44138;BME280;29800;55.942;37.314;2023-03-03T00:01:42;98025.81;;;-1.48;78.15
44138;BME280;29800;55.942;37.314;2023-03-03T00:04:08;98016.31;;;-1.44;78.53
44138;BME280;29800;55.942;37.314;2023-03-03T00:06:34;98019.59;;;-1.42;78.12
44138;BME280;29800;55.942;37.314;2023-03-03T00:09:01;98015.91;;;-1.41;78.60
44138;BME280;29800;55.942;37.314;2023-03-03T00:11:27;98013.81;;;-1.39;78.81
44138;BME280;29800;55.942;37.314;2023-03-03T00:13:55;98009.03;;;-1.37;78.76
44138;BME280;29800;55.942;37.314;2023-03-03T00:16:27;98003.25;;;-1.34;78.83
44138;BME280;29800;55.942;37.314;2023-03-03T00:18:54;97992.72;;;-1.35;78.83
44138;BME280;29800;55.942;37.314;2023-03-03T05:46:56;97824.66;;;0.35;80.00
44138;BME280;29800;55.942;37.314;2023-03-03T05:49:25;97828.91;;;0.43;79.31
44138;BME280;29800;55.942;37.314;2023-03-03T05:51:51;97823.19;;;0.51;78.62
44138;BME280;29800;55.942;37.314;2023-03-03T05:54:18;97827.41;;;0.59;78.10
44138;BME280;29800;55.942;37.314;2023-03-03T05:56:44;97826.22;;;0.67;77.73
44138;BME280;29800;55.942;37.314;2023-03-03T05:59:10;97820.38;;;0.70;77.51
44138;BME280;29800;55.942;37.314;2023-03-03T06:01:36;97830.81;;;0.78;76.86
44138;BME280;29800;55.942;37.314;2023-03-03T06:04:02;97827.06;;;0.79;76.84
44138;BME280;29800;55.942;37.314;2023-03-03T06:06:29;97828.34;;;0.88;76.69
44138;BME280;29800;55.942;37.314;2023-03-03T06:08:55;97833.16;;;0.98;76.15
44138;BME280;29800;55.942;37.314;2023-03-03T06:11:21;97834.22;;;1.09;76.10
44138;BME280;29800;55.942;37.314;2023-03-03T06:13:48;97834.91;;;1.16;75.12
44138;BME280;29800;55.942;37.314;2023-03-03T06:16:14;97834.22;;;1.21;74.57
44138;BME280;29800;55.942;37.314;2023-03-03T06:18:40;97831.50;;;1.21;74.32
44138;BME280;29800;55.942;37.314;2023-03-03T06:21:06;97833.97;;;1.22;73.79
44138;BME280;29800;55.942;37.314;2023-03-03T06:23:32;97838.41;;;1.28;74.41
44138;BME280;29800;55.942;37.314;2023-03-03T06:25:59;97824.47;;;1.32;73.80
44138;BME280;29800;55.942;37.314;2023-03-03T06:28:25;97833.72;;;1.36;73.73
44138;BME280;29800;55.942;37.314;2023-03-03T06:30:55;97838.16;;;1.42;73.17
44138;BME280;29800;55.942;37.314;2023-03-03T06:33:22;97829.38;;;1.46;72.84
44138;BME280;29800;55.942;37.314;2023-03-03T06:35:52;97831.69;;;1.55;72.95
44138;BME280;29800;55.942;37.314;2023-03-03T06:38:19;97835.41;;;1.65;72.81
44138;BME280;29800;55.942;37.314;2023-03-03T06:40:46;97839.00;;;1.83;72.60
44138;BME280;29800;55.942;37.314;2023-03-03T06:43:12;97832.97;;;1.93;71.47
44138;BME280;29800;55.942;37.314;2023-03-03T06:45:39;97840.38;;;1.97;70.76
44138;BME280;29800;55.942;37.314;2023-03-03T06:48:05;97839.66;;;2.02;71.01
44138;BME280;29800;55.942;37.314;2023-03-03T07:01:48;97841.09;;;2.38;72.04
44138;BME280;29800;55.942;37.314;2023-03-03T07:06:44;97842.75;;;2.39;69.10
44138;BME280;29800;55.942;37.314;2023-03-03T07:09:23;97849.94;;;2.51;68.03
44138;BME280;29800;55.942;37.314;2023-03-03T07:11:51;97847.41;;;2.44;67.95
44138;BME280;29800;55.942;37.314;2023-03-03T07:14:18;97834.06;;;2.37;68.17
44138;BME280;29800;55.942;37.314;2023-03-03T07:16:46;97847.16;;;2.29;67.83
44138;BME280;29800;55.942;37.314;2023-03-03T07:19:22;97848.72;;;2.42;68.60
44138;BME280;29800;55.942;37.314;2023-03-03T07:21:53;97848.56;;;2.48;67.58
44138;BME280;29800;55.942;37.314;2023-03-03T07:24:29;97852.59;;;2.63;67.46
44138;BME280;29800;55.942;37.314;2023-03-03T07:27:10;97845.06;;;2.65;67.01
44138;BME280;29800;55.942;37.314;2023-03-03T07:29:37;97849.47;;;2.54;67.27
44138;BME280;29800;55.942;37.314;2023-03-03T07:34:48;97856.59;;;2.60;66.76
44138;BME280;29800;55.942;37.314;2023-03-03T07:37:19;97858.66;;;2.53;67.21
44138;BME280;29800;55.942;37.314;2023-03-03T07:39:49;97852.56;;;2.46;66.95
44138;BME280;29800;55.942;37.314;2023-03-03T07:45:00;97855.50;;;2.44;67.30
44138;BME280;29800;55.942;37.314;2023-03-03T07:47:35;97853.88;;;2.43;67.56
44138;BME280;29800;55.942;37.314;2023-03-03T07:50:28;97855.31;;;2.63;67.24
44138;BME280;29800;55.942;37.314;2023-03-03T07:52:56;97860.75;;;2.51;66.49
44138;BME280;29800;55.942;37.314;2023-03-03T07:55:33;97861.59;;;2.51;67.23
44138;BME280;29800;55.942;37.314;2023-03-03T08:03:17;97865.63;;;2.66;66.57
44138;BME280;29800;55.942;37.314;2023-03-03T08:05:49;97864.06;;;2.70;65.76
44138;BME280;29800;55.942;37.314;2023-03-03T08:08:43;97858.09;;;2.85;66.64
44138;BME280;29800;55.942;37.314;2023-03-03T08:11:11;97863.16;;;3.15;66.19
44138;BME280;29800;55.942;37.314;2023-03-03T08:13:40;97866.66;;;2.82;65.28
44138;BME280;29800;55.942;37.314;2023-03-03T08:18:36;97868.97;;;2.90;65.70
44138;BME280;29800;55.942;37.314;2023-03-03T08:21:20;97873.63;;;3.11;66.34
44138;BME280;29800;55.942;37.314;2023-03-03T08:23:47;97864.84;;;3.21;65.88
44138;BME280;29800;55.942;37.314;2023-03-03T08:26:21;97864.78;;;3.33;65.70
44138;BME280;29800;55.942;37.314;2023-03-03T08:28:47;97869.25;;;3.44;64.56
44138;BME280;29800;55.942;37.314;2023-03-03T08:31:14;97868.16;;;3.45;64.66
44138;BME280;29800;55.942;37.314;2023-03-03T08:33:43;97869.06;;;3.51;64.38
44138;BME280;29800;55.942;37.314;2023-03-03T08:36:10;97866.63;;;3.49;64.54
44138;BME280;29800;55.942;37.314;2023-03-03T08:49:48;97865.25;;;4.13;65.69
44138;BME280;29800;55.942;37.314;2023-03-03T08:52:15;97879.03;;;4.12;63.83
44138;BME280;29800;55.942;37.314;2023-03-03T08:54:41;97870.72;;;4.18;62.90
44138;BME280;29800;55.942;37.314;2023-03-03T08:57:07;97875.44;;;4.06;62.74
44138;BME280;29800;55.942;37.314;2023-03-03T08:59:33;97879.72;;;3.80;62.65
44138;BME280;29800;55.942;37.314;2023-03-03T09:02:06;97874.44;;;3.68;63.97
44138;BME280;29800;55.942;37.314;2023-03-03T09:04:33;97878.13;;;3.62;64.63
44138;BME280;29800;55.942;37.314;2023-03-03T09:06:59;97881.94;;;3.61;64.81
44138;BME280;29800;55.942;37.314;2023-03-03T09:09:26;97874.94;;;3.65;64.99
44138;BME280;29800;55.942;37.314;2023-03-03T09:12:02;97869.78;;;3.85;65.13
44138;BME280;29800;55.942;37.314;2023-03-03T09:14:32;97880.63;;;3.85;64.70
44138;BME280;29800;55.942;37.314;2023-03-03T09:16:58;97881.72;;;3.90;64.52
44138;BME280;29800;55.942;37.314;2023-03-03T09:19:30;97867.69;;;3.93;64.30
44138;BME280;29800;55.942;37.314;2023-03-03T09:22:19;97871.72;;;3.90;64.50
44138;BME280;29800;55.942;37.314;2023-03-03T09:24:48;97875.25;;;3.68;64.59
44138;BME280;29800;55.942;37.314;2023-03-03T09:27:25;97881.56;;;3.74;64.75
44138;BME280;29800;55.942;37.314;2023-03-03T09:29:53;97878.34;;;3.77;64.59
44138;BME280;29800;55.942;37.314;2023-03-03T09:32:33;97883.59;;;4.11;64.36
44138;BME280;29800;55.942;37.314;2023-03-03T09:35:40;97884.41;;;4.34;63.52
44138;BME280;29800;55.942;37.314;2023-03-03T09:38:31;97886.69;;;4.47;63.32
44138;BME280;29800;55.942;37.314;2023-03-03T09:41:29;97889.41;;;4.47;63.24
44138;BME280;29800;55.942;37.314;2023-03-03T09:57:23;97881.66;;;4.07;62.47
44138;BME280;29800;55.942;37.314;2023-03-03T10:05:52;97880.03;;;4.33;61.90
44138;BME280;29800;55.942;37.314;2023-03-03T10:11:43;97882.44;;;4.29;61.71
44138;BME280;29800;55.942;37.314;2023-03-03T10:14:48;97876.19;;;4.01;62.04
44138;BME280;29800;55.942;37.314;2023-03-03T10:17:31;97880.03;;;4.05;62.72
44138;BME280;29800;55.942;37.314;2023-03-03T10:20:07;97870.41;;;3.93;61.95
44138;BME280;29800;55.942;37.314;2023-03-03T10:25:41;97876.06;;;4.13;61.62
44138;BME280;29800;55.942;37.314;2023-03-03T10:34:23;97872.72;;;4.06;61.89
44138;BME280;29800;55.942;37.314;2023-03-03T10:48:56;97876.03;;;4.63;61.12
44138;BME280;29800;55.942;37.314;2023-03-03T10:51:32;97877.75;;;4.74;60.35
44138;BME280;29800;55.942;37.314;2023-03-03T10:54:31;97877.16;;;4.99;59.97
44138;BME280;29800;55.942;37.314;2023-03-03T11:00:15;97882.31;;;5.01;58.97
44138;BME280;29800;55.942;37.314;2023-03-03T11:02:50;97883.75;;;4.76;59.10
44138;BME280;29800;55.942;37.314;2023-03-03T11:08:16;97891.63;;;4.50;60.28
44138;BME280;29800;55.942;37.314;2023-03-03T11:13:44;97898.69;;;4.51;61.66
44138;BME280;29800;55.942;37.314;2023-03-03T11:19:25;97897.53;;;4.47;61.99
44138;BME280;29800;55.942;37.314;2023-03-03T11:25:26;97901.66;;;4.50;62.01
44138;BME280;29800;55.942;37.314;2023-03-03T11:28:43;97903.00;;;4.52;61.74
44138;BME280;29800;55.942;37.314;2023-03-03T11:31:10;97896.38;;;4.65;61.61
44138;BME280;29800;55.942;37.314;2023-03-03T11:34:00;97893.66;;;4.65;61.41
44138;BME280;29800;55.942;37.314;2023-03-03T11:39:01;97898.56;;;4.68;60.20
44138;BME280;29800;55.942;37.314;2023-03-03T11:41:32;97898.53;;;4.63;60.36
44138;BME280;29800;55.942;37.314;2023-03-03T11:46:55;97895.63;;;4.75;60.43
44138;BME280;29800;55.942;37.314;2023-03-03T11:49:31;97900.41;;;4.63;60.47
44138;BME280;29800;55.942;37.314;2023-03-03T11:57:27;97903.56;;;5.14;59.79
44138;BME280;29800;55.942;37.314;2023-03-03T12:03:28;97902.75;;;4.81;57.51
44138;BME280;29800;55.942;37.314;2023-03-03T12:06:00;97901.03;;;4.70;57.45
44138;BME280;29800;55.942;37.314;2023-03-03T12:09:03;97900.69;;;4.39;57.35
44138;BME280;29800;55.942;37.314;2023-03-03T12:11:42;97904.22;;;4.12;58.27
44138;BME280;29800;55.942;37.314;2023-03-03T12:17:29;97903.50;;;4.00;59.76
44138;BME280;29800;55.942;37.314;2023-03-03T12:25:13;97891.16;;;3.65;60.79
44138;BME280;29800;55.942;37.314;2023-03-03T12:27:59;97900.81;;;3.78;60.66
44138;BME280;29800;55.942;37.314;2023-03-03T12:33:21;97900.25;;;3.98;60.19
44138;BME280;29800;55.942;37.314;2023-03-03T12:38:51;97888.53;;;4.14;59.14
44138;BME280;29800;55.942;37.314;2023-03-03T12:44:43;97885.69;;;4.53;58.18
44138;BME280;29800;55.942;37.314;2023-03-03T12:47:35;97885.09;;;4.78;57.96
44138;BME280;29800;55.942;37.314;2023-03-03T12:56:02;97892.22;;;4.57;57.28
44138;BME280;29800;55.942;37.314;2023-03-03T13:01:13;97898.41;;;4.26;57.58
44138;BME280;29800;55.942;37.314;2023-03-03T13:06:57;97902.06;;;4.36;57.70
44138;BME280;29800;55.942;37.314;2023-03-03T13:12:30;97904.16;;;4.34;57.60
44138;BME280;29800;55.942;37.314;2023-03-03T13:15:01;97901.72;;;4.33;57.71
44138;BME280;29800;55.942;37.314;2023-03-03T13:17:36;97903.31;;;4.29;58.15
44138;BME280;29800;55.942;37.314;2023-03-03T13:28:03;97896.75;;;4.74;57.46
44138;BME280;29800;55.942;37.314;2023-03-03T13:30:34;97900.69;;;4.93;56.79
44138;BME280;29800;55.942;37.314;2023-03-03T13:33:14;97904.56;;;5.03;56.60
44138;BME280;29800;55.942;37.314;2023-03-03T13:35:59;97899.44;;;5.06;56.47
44138;BME280;29800;55.942;37.314;2023-03-03T13:38:39;97898.53;;;4.95;56.43
44138;BME280;29800;55.942;37.314;2023-03-03T13:41:22;97894.84;;;5.07;56.67
44138;BME280;29800;55.942;37.314;2023-03-03T13:44:11;97897.81;;;5.05;55.97
44138;BME280;29800;55.942;37.314;2023-03-03T13:52:31;97892.53;;;4.61;55.57
44138;BME280;29800;55.942;37.314;2023-03-03T13:55:02;97891.72;;;4.33;55.79
44138;BME280;29800;55.942;37.314;2023-03-03T14:00:13;97886.81;;;4.08;56.41
44138;BME280;29800;55.942;37.314;2023-03-03T14:08:02;97889.09;;;3.94;57.05
44138;BME280;29800;55.942;37.314;2023-03-03T14:10:39;97890.78;;;3.78;56.97
44138;BME280;29800;55.942;37.314;2023-03-03T14:13:16;97890.78;;;3.78;56.76
44138;BME280;29800;55.942;37.314;2023-03-03T14:15:57;97885.38;;;3.78;56.82
44138;BME280;29800;55.942;37.314;2023-03-03T14:21:19;97891.78;;;3.72;57.17
44138;BME280;29800;55.942;37.314;2023-03-03T14:24:08;97887.34;;;3.83;57.27
44138;BME280;29800;55.942;37.314;2023-03-03T14:26:47;97886.53;;;3.82;56.75
44138;BME280;29800;55.942;37.314;2023-03-03T14:29:21;97886.03;;;3.85;56.35
44138;BME280;29800;55.942;37.314;2023-03-03T14:32:18;97888.63;;;3.80;56.99
44138;BME280;29800;55.942;37.314;2023-03-03T14:34:56;97892.19;;;3.81;57.11
44138;BME280;29800;55.942;37.314;2023-03-03T14:37:41;97893.00;;;3.81;57.23
44138;BME280;29800;55.942;37.314;2023-03-03T14:42:45;97886.81;;;3.64;57.47
44138;BME280;29800;55.942;37.314;2023-03-03T14:45:36;97885.88;;;3.75;57.86
44138;BME280;29800;55.942;37.314;2023-03-03T14:50:39;97896.91;;;3.91;57.48
44138;BME280;29800;55.942;37.314;2023-03-03T14:55:48;97889.69;;;3.57;57.28
44138;BME280;29800;55.942;37.314;2023-03-03T14:58:39;97898.72;;;3.63;57.58
44138;BME280;29800;55.942;37.314;2023-03-03T15:03:44;97897.81;;;3.57;57.68
44138;BME280;29800;55.942;37.314;2023-03-03T15:09:39;97897.56;;;3.59;57.85
44138;BME280;29800;55.942;37.314;2023-03-03T15:14:52;97902.22;;;3.41;57.81
44138;BME280;29800;55.942;37.314;2023-03-03T15:23:17;97913.34;;;3.45;57.84
44138;BME280;29800;55.942;37.314;2023-03-03T15:29:15;97919.88;;;3.66;57.40
44138;BME280;29800;55.942;37.314;2023-03-03T15:34:43;97919.38;;;3.69;56.48
44138;BME280;29800;55.942;37.314;2023-03-03T15:45:36;97925.47;;;3.59;56.97
44138;BME280;29800;55.942;37.314;2023-03-03T15:53:52;97923.63;;;3.65;57.54
44138;BME280;29800;55.942;37.314;2023-03-03T15:56:40;97915.38;;;3.55;57.17
44138;BME280;29800;55.942;37.314;2023-03-03T16:02:19;97926.09;;;3.66;57.35
44138;BME280;29800;55.942;37.314;2023-03-03T16:04:58;97927.50;;;3.69;56.82
44138;BME280;29800;55.942;37.314;2023-03-03T16:07:57;97924.91;;;3.79;56.93
44138;BME280;29800;55.942;37.314;2023-03-03T16:10:33;97928.38;;;3.75;57.02
44138;BME280;29800;55.942;37.314;2023-03-03T16:13:35;97927.38;;;3.81;57.08
44138;BME280;29800;55.942;37.314;2023-03-03T16:24:46;97918.94;;;3.77;56.79
44138;BME280;29800;55.942;37.314;2023-03-03T16:35:25;97921.00;;;3.70;57.04
44138;BME280;29800;55.942;37.314;2023-03-03T16:37:55;97923.81;;;3.58;57.37
44138;BME280;29800;55.942;37.314;2023-03-03T16:40:29;97920.84;;;3.60;57.49
44138;BME280;29800;55.942;37.314;2023-03-03T16:45:53;97921.09;;;3.58;56.96
44138;BME280;29800;55.942;37.314;2023-03-03T16:48:33;97925.28;;;3.66;56.96
44138;BME280;29800;55.942;37.314;2023-03-03T16:51:19;97928.22;;;3.64;57.15
44138;BME280;29800;55.942;37.314;2023-03-03T16:54:02;97914.69;;;3.64;57.45
44138;BME280;29800;55.942;37.314;2023-03-03T17:01:49;97921.06;;;3.36;57.35
44138;BME280;29800;55.942;37.314;2023-03-03T17:15:11;97921.28;;;3.52;57.40
44138;BME280;29800;55.942;37.314;2023-03-03T17:31:35;97915.81;;;3.46;57.18
44138;BME280;29800;55.942;37.314;2023-03-03T17:34:40;97913.97;;;3.52;57.49
44138;BME280;29800;55.942;37.314;2023-03-03T17:42:52;97915.31;;;3.49;57.38
44138;BME280;29800;55.942;37.314;2023-03-03T17:45:23;97915.81;;;3.46;56.93
44138;BME280;29800;55.942;37.314;2023-03-03T17:48:16;97918.56;;;3.52;57.78
44138;BME280;29800;55.942;37.314;2023-03-03T18:00:11;97923.00;;;3.58;57.00
44138;BME280;29800;55.942;37.314;2023-03-03T18:08:22;97925.97;;;3.39;57.02
44138;BME280;29800;55.942;37.314;2023-03-03T18:11:14;97920.72;;;3.49;57.24
44138;BME280;29800;55.942;37.314;2023-03-03T18:17:01;97927.94;;;3.44;56.81
44138;BME280;29800;55.942;37.314;2023-03-03T18:22:33;97918.94;;;3.38;56.61
44138;BME280;29800;55.942;37.314;2023-03-03T18:25:13;97918.94;;;3.38;57.32
44138;BME280;29800;55.942;37.314;2023-03-03T18:27:44;97919.91;;;3.32;56.90
44138;BME280;29800;55.942;37.314;2023-03-03T18:30:18;97917.22;;;3.32;57.46
44138;BME280;29800;55.942;37.314;2023-03-03T18:37:47;97918.59;;;3.18;57.49
44138;BME280;29800;55.942;37.314;2023-03-03T18:40:26;97910.06;;;3.26;57.00
44138;BME280;29800;55.942;37.314;2023-03-03T18:42:54;97914.34;;;3.22;57.10
44138;BME280;29800;55.942;37.314;2023-03-03T18:50:41;97904.03;;;3.19;57.28
44138;BME280;29800;55.942;37.314;2023-03-03T18:53:27;97907.78;;;3.18;57.03
44138;BME280;29800;55.942;37.314;2023-03-03T18:55:56;97907.22;;;2.99;57.10
44138;BME280;29800;55.942;37.314;2023-03-03T18:58:39;97904.03;;;3.02;57.67
44138;BME280;29800;55.942;37.314;2023-03-03T19:03:55;97908.94;;;2.88;57.35
44138;BME280;29800;55.942;37.314;2023-03-03T19:09:10;97906.63;;;2.97;57.71
44138;BME280;29800;55.942;37.314;2023-03-03T19:11:40;97906.88;;;2.61;57.72
44138;BME280;29800;55.942;37.314;2023-03-03T19:16:43;97910.94;;;2.47;57.55
44138;BME280;29800;55.942;37.314;2023-03-03T19:19:17;97910.84;;;2.42;57.50
44138;BME280;29800;55.942;37.314;2023-03-03T19:21:50;97913.69;;;2.35;58.39
44138;BME280;29800;55.942;37.314;2023-03-03T19:24:26;97906.88;;;2.32;57.85
44138;BME280;29800;55.942;37.314;2023-03-03T19:32:14;97922.00;;;2.05;58.13
44138;BME280;29800;55.942;37.314;2023-03-03T19:35:01;97925.38;;;2.12;58.80
44138;BME280;29800;55.942;37.314;2023-03-03T19:40:36;97915.44;;;2.00;58.32
44138;BME280;29800;55.942;37.314;2023-03-03T19:43:24;97922.97;;;1.98;58.59
44138;BME280;29800;55.942;37.314;2023-03-03T19:51:43;97921.72;;;1.65;58.83
44138;BME280;29800;55.942;37.314;2023-03-03T19:56:55;97914.22;;;1.68;58.34
44138;BME280;29800;55.942;37.314;2023-03-03T20:04:56;97905.75;;;1.64;58.60
44138;BME280;29800;55.942;37.314;2023-03-03T20:16:37;97891.84;;;1.55;59.10
44138;BME280;29800;55.942;37.314;2023-03-03T20:22:08;97893.13;;;1.41;58.56
44138;BME280;29800;55.942;37.314;2023-03-03T20:27:37;97883.78;;;1.32;59.12
44138;BME280;29800;55.942;37.314;2023-03-03T20:30:13;97887.19;;;1.15;59.76
44138;BME280;29800;55.942;37.314;2023-03-03T20:33:02;97879.22;;;1.20;59.86
44138;BME280;29800;55.942;37.314;2023-03-03T20:38:42;97878.63;;;1.18;59.33
44138;BME280;29800;55.942;37.314;2023-03-03T20:52:19;97874.88;;;1.07;60.11
44138;BME280;29800;55.942;37.314;2023-03-03T21:03:46;97867.72;;;1.13;60.19
44138;BME280;29800;55.942;37.314;2023-03-03T21:06:18;97865.94;;;0.95;59.99
44138;BME280;29800;55.942;37.314;2023-03-03T21:11:13;97872.63;;;0.69;61.50
44138;BME280;29800;55.942;37.314;2023-03-03T21:13:45;97866.97;;;0.59;61.29
44138;BME280;29800;55.942;37.314;2023-03-03T21:21:26;97855.25;;;0.41;62.22
44138;BME280;29800;55.942;37.314;2023-03-03T21:23:52;97851.34;;;0.37;62.48
44138;BME280;29800;55.942;37.314;2023-03-03T21:29:29;97854.84;;;0.38;62.63
44138;BME280;29800;55.942;37.314;2023-03-03T21:32:04;97844.88;;;0.26;62.93
44138;BME280;29800;55.942;37.314;2023-03-03T21:34:34;97844.06;;;0.26;63.44
44138;BME280;29800;55.942;37.314;2023-03-03T21:37:04;97840.22;;;0.22;63.81
44138;BME280;29800;55.942;37.314;2023-03-03T21:44:36;97835.22;;;0.49;63.36
44138;BME280;29800;55.942;37.314;2023-03-03T21:47:05;97834.66;;;0.59;63.52
44138;BME280;29800;55.942;37.314;2023-03-03T21:49:31;97827.06;;;0.67;63.13
44138;BME280;29800;55.942;37.314;2023-03-03T21:51:58;97826.97;;;0.74;62.67
44138;BME280;29800;55.942;37.314;2023-03-03T21:54:24;97822.28;;;0.81;62.13
44138;BME280;29800;55.942;37.314;2023-03-03T21:56:51;97821.91;;;0.89;62.47
44138;BME280;29800;55.942;37.314;2023-03-03T21:59:18;97813.94;;;0.95;62.02
44138;BME280;29800;55.942;37.314;2023-03-03T22:01:45;97821.09;;;1.01;61.51
44138;BME280;29800;55.942;37.314;2023-03-03T22:04:11;97804.00;;;1.07;62.21
44138;BME280;29800;55.942;37.314;2023-03-03T22:06:37;97814.66;;;1.14;61.99
44138;BME280;29800;55.942;37.314;2023-03-03T22:09:04;97810.75;;;1.21;61.32
44138;BME280;29800;55.942;37.314;2023-03-03T22:11:31;97813.44;;;1.21;61.61
44138;BME280;29800;55.942;37.314;2023-03-03T22:13:57;97818.97;;;1.26;61.44
44138;BME280;29800;55.942;37.314;2023-03-03T22:16:24;97817.19;;;1.32;61.32
44138;BME280;29800;55.942;37.314;2023-03-03T22:18:50;97812.16;;;1.36;60.52
44138;BME280;29800;55.942;37.314;2023-03-03T22:21:16;97813.78;;;1.37;60.76
44138;BME280;29800;55.942;37.314;2023-03-03T22:23:42;97806.28;;;1.39;60.48
44138;BME280;29800;55.942;37.314;2023-03-03T22:26:09;97806.84;;;1.41;60.68
44138;BME280;29800;55.942;37.314;2023-03-03T22:28:35;97807.59;;;1.36;60.50
44138;BME280;29800;55.942;37.314;2023-03-03T22:31:01;97801.38;;;1.36;60.39
44138;BME280;29800;55.942;37.314;2023-03-03T22:33:27;97800.22;;;1.32;60.79
44138;BME280;29800;55.942;37.314;2023-03-03T22:35:54;97806.88;;;1.29;61.04
44138;BME280;29800;55.942;37.314;2023-03-03T22:38:20;97809.81;;;1.27;60.98
44138;BME280;29800;55.942;37.314;2023-03-03T22:40:48;97808.19;;;1.26;60.89
44138;BME280;29800;55.942;37.314;2023-03-03T22:43:16;97808.19;;;1.26;60.93
44138;BME280;29800;55.942;37.314;2023-03-03T22:45:43;97796.56;;;1.26;60.83
44138;BME280;29800;55.942;37.314;2023-03-03T22:48:10;97802.31;;;1.29;60.63
44138;BME280;29800;55.942;37.314;2023-03-03T22:50:37;97799.16;;;1.21;60.46
44138;BME280;29800;55.942;37.314;2023-03-03T22:53:08;97793.66;;;1.27;60.89
44138;BME280;29800;55.942;37.314;2023-03-03T22:55:34;97791.31;;;1.19;60.79
44138;BME280;29800;55.942;37.314;2023-03-03T22:58:02;97785.13;;;1.19;61.07
44138;BME280;29800;55.942;37.314;2023-03-03T23:00:29;97784.53;;;1.17;60.88
44138;BME280;29800;55.942;37.314;2023-03-03T23:02:55;97777.16;;;1.12;61.07
44138;BME280;29800;55.942;37.314;2023-03-03T23:05:22;97767.91;;;1.08;61.04
44138;BME280;29800;55.942;37.314;2023-03-03T23:07:48;97774.84;;;1.04;61.14
44138;BME280;29800;55.942;37.314;2023-03-03T23:10:15;97781.63;;;0.95;60.87
44138;BME280;29800;55.942;37.314;2023-03-03T23:12:41;97778.00;;;0.89;61.47
44138;BME280;29800;55.942;37.314;2023-03-03T23:15:08;97784.44;;;0.88;62.07
44138;BME280;29800;55.942;37.314;2023-03-03T23:17:44;97785.59;;;1.04;61.49
44138;BME280;29800;55.942;37.314;2023-03-03T23:20:20;97783.03;;;1.09;61.73
44138;BME280;29800;55.942;37.314;2023-03-03T23:22:46;97770.31;;;1.21;60.97
44138;BME280;29800;55.942;37.314;2023-03-03T23:25:12;97768.44;;;1.34;61.12
44138;BME280;29800;55.942;37.314;2023-03-03T23:27:40;97776.63;;;1.39;60.28
44138;BME280;29800;55.942;37.314;2023-03-03T23:30:08;97763.47;;;1.42;60.96
44138;BME280;29800;55.942;37.314;2023-03-03T23:32:35;97759.16;;;1.41;60.63
44138;BME280;29800;55.942;37.314;2023-03-03T23:35:01;97758.94;;;1.43;60.29
44138;BME280;29800;55.942;37.314;2023-03-03T23:37:29;97756.25;;;1.43;60.22
44138;BME280;29800;55.942;37.314;2023-03-03T23:39:55;97752.22;;;1.45;60.23
44138;BME280;29800;55.942;37.314;2023-03-03T23:42:22;97746.16;;;1.38;60.64
44138;BME280;29800;55.942;37.314;2023-03-03T23:44:49;97751.31;;;1.40;60.28
44138;BME280;29800;55.942;37.314;2023-03-03T23:47:16;97750.25;;;1.41;60.75
44138;BME280;29800;55.942;37.314;2023-03-03T23:49:42;97746.13;;;1.50;60.60
44138;BME280;29800;55.942;37.314;2023-03-03T23:52:09;97742.00;;;1.59;60.45
44138;BME280;29800;55.942;37.314;2023-03-03T23:54:36;97749.34;;;1.64;60.68
44138;BME280;29800;55.942;37.314;2023-03-03T23:57:02;97750.19;;;1.64;60.25
44138;BME280;29800;55.942;37.314;2023-03-03T23:59:28;97750.84;;;1.72;60.54
